Impros — D5BS7 — position and weather

sailwx.info

Track history (hours):
 
Tides and Currents Weather Stations Pressure Air Temp Water Temp Dewpoint Dewpoint Depression Visibility Wind Speed Wind Dir Waves Ship Positions

Impros

Last reported at 2015-Feb-28 15:33 UTC. Time now 2015-Mar-02 11:16 UTC.
Position N 01°15' E 104°05'.

Length 244 m; draft 10.4 m.

Type: Tanker. MMSI: 636015595.

Date/timePositionNaut miles runAvg speedWind from/ knotsBaromVisibWave heightAir tempDewpointWater temp
2015-Feb-28 15:33N 01°15' E 104°05'9 9.0
2015-Feb-28 14:33N 01°13' E 103°56'8 8.3
2015-Feb-28 13:32N 01°10' E 103°48'  
2015-Feb-19 10:31N 01°09' E 103°42'9 9.1
2015-Feb-19 09:33N 01°12' E 103°51'6 5.4
2015-Feb-19 08:25N 01°16' E 103°55'0 0.1
2015-Feb-19 07:31N 01°16' E 103°55'0 0.0
2015-Feb-19 06:28N 01°16' E 103°55'0 0.1
2015-Feb-19 05:28N 01°16' E 103°55'0 0.1
2015-Feb-19 04:31N 01°16' E 103°55'0 0.1
2015-Feb-19 03:31N 01°16' E 103°55'0 0.1
2015-Feb-19 02:31N 01°16' E 103°55'0 0.0
2015-Feb-19 00:33N 01°16' E 103°55'0 0.1
2015-Feb-18 23:21N 01°16' E 103°55'0 0.1
2015-Feb-18 22:33N 01°16' E 103°55'0 0.1
2015-Feb-18 21:27N 01°16' E 103°55'0 0.1
2015-Feb-18 20:33N 01°16' E 103°55'0 0.1
2015-Feb-18 19:30N 01°16' E 103°55'0 0.4
2015-Feb-18 18:33N 01°16' E 103°55'0 0.0
2015-Feb-18 17:27N 01°16' E 103°55'  
Track history (hours):
 
Tides and Currents Weather Stations Pressure Air Temp Water Temp Dewpoint Dewpoint Depression Visibility Wind Speed Wind Dir Waves Ship Positions

Impros

Last reported at 2015-Feb-28 15:33 UTC. Time now 2015-Mar-02 11:16 UTC.
Position N 01°15' E 104°05'.

Length 244 m; draft 10.4 m.

Type: Tanker. MMSI: 636015595.

Date/timePositionNaut miles runAvg speedWind from/ knotsBaromVisibWave heightAir tempDewpointWater temp
2015-Feb-28 15:33N 01°15' E 104°05'9 9.0
2015-Feb-28 14:33N 01°13' E 103°56'8 8.3
2015-Feb-28 13:32N 01°10' E 103°48'  
2015-Feb-19 10:31N 01°09' E 103°42'9 9.1
2015-Feb-19 09:33N 01°12' E 103°51'6 5.4
2015-Feb-19 08:25N 01°16' E 103°55'0 0.1
2015-Feb-19 07:31N 01°16' E 103°55'0 0.0
2015-Feb-19 06:28N 01°16' E 103°55'0 0.1
2015-Feb-19 05:28N 01°16' E 103°55'0 0.1
2015-Feb-19 04:31N 01°16' E 103°55'0 0.1
2015-Feb-19 03:31N 01°16' E 103°55'0 0.1
2015-Feb-19 02:31N 01°16' E 103°55'0 0.0
2015-Feb-19 00:33N 01°16' E 103°55'0 0.1
2015-Feb-18 23:21N 01°16' E 103°55'0 0.1
2015-Feb-18 22:33N 01°16' E 103°55'0 0.1
2015-Feb-18 21:27N 01°16' E 103°55'0 0.1
2015-Feb-18 20:33N 01°16' E 103°55'0 0.1
2015-Feb-18 19:30N 01°16' E 103°55'0 0.4
2015-Feb-18 18:33N 01°16' E 103°55'0 0.0
2015-Feb-18 17:27N 01°16' E 103°55'  

Dump ship's entire track history